Time;durP1;ratioP1;P1;durP2;ratioP2;P2;SDS_P1;SDS_P2;PMS_P1;PMS_P2;Temp;Humidity;BMP_temperature;BMP_pressure;BME280_temperature;BME280_humidity;BME280_pressure;Samples;Min_cycle;Max_cycle;Signal;HPM_P1;HPM_P2
2023/09/13 00:02:12;;;;;;;10.25;7.80;;;;;;;11.46;83.79;99902.81;5067726;28;20051;-75
2023/09/13 00:04:37;;;;;;;16.10;9.02;;;;;;;11.44;83.80;99902.06;5093218;28;20386;-72
2023/09/13 00:07:04;;;;;;;11.60;8.40;;;;;;;11.50;82.79;99904.31;5095784;27;20047;-72
2023/09/13 00:09:29;;;;;;;14.75;8.15;;;;;;;11.48;83.16;99907.06;5112909;27;20437;-74
2023/09/13 00:11:54;;;;;;;11.30;7.38;;;;;;;11.51;83.17;99911.34;5097330;27;20584;-73
2023/09/13 00:14:19;;;;;;;16.15;7.60;;;;;;;11.52;83.45;99903.22;5095170;27;20053;-73
2023/09/13 00:16:45;;;;;;;12.90;7.40;;;;;;;11.49;83.44;99897.25;5097130;27;20035;-74
2023/09/13 00:19:10;;;;;;;13.95;8.07;;;;;;;11.51;83.50;99906.84;5115514;27;20416;-73
2023/09/13 00:21:40;;;;;;;13.68;8.52;;;;;;;11.51;83.41;99903.34;5092913;27;20414;-75
2023/09/13 00:24:05;;;;;;;13.02;8.10;;;;;;;11.50;83.37;99899.81;5114429;27;20038;-74
2023/09/13 00:26:30;;;;;;;14.18;7.65;;;;;;;11.45;83.33;99891.28;5115063;27;20045;-75
2023/09/13 00:28:57;;;;;;;11.48;7.53;;;;;;;11.43;83.51;99903.00;5096342;27;20061;-74
2023/09/13 00:31:23;;;;;;;12.25;8.07;;;;;;;11.37;83.31;99898.13;5096950;27;20394;-73
2023/09/13 00:33:48;;;;;;;16.10;8.18;;;;;;;11.31;83.72;99902.06;5096887;27;20046;-70
2023/09/13 00:36:13;;;;;;;15.15;8.32;;;;;;;11.26;83.88;99907.75;5115448;27;20038;-71
2023/09/13 00:38:38;;;;;;;11.48;7.47;;;;;;;11.20;84.10;99897.47;5096354;27;20051;-78
2023/09/13 00:41:04;;;;;;;14.95;7.75;;;;;;;11.17;84.13;99899.53;5077375;27;20043;-80
2023/09/13 00:43:29;;;;;;;17.45;8.35;;;;;;;11.12;84.61;99920.31;5061478;28;20051;-79
2023/09/13 00:45:55;;;;;;;11.90;7.07;;;;;;;11.08;84.44;99903.66;5068200;27;20058;-80
2023/09/13 00:48:23;;;;;;;15.77;8.30;;;;;;;11.04;85.32;99917.34;5064068;27;20047;-78
2023/09/13 00:50:50;;;;;;;13.43;8.13;;;;;;;11.04;85.52;99902.19;5106228;27;20046;-76
2023/09/13 00:53:17;;;;;;;14.75;7.70;;;;;;;11.02;85.34;99908.59;5115472;27;20046;-76
2023/09/13 00:55:44;;;;;;;11.32;8.32;;;;;;;10.99;85.39;99914.97;5097423;27;20039;-76
2023/09/13 00:58:11;;;;;;;14.82;8.68;;;;;;;10.98;85.76;99909.75;5080823;27;20043;-77
2023/09/13 01:00:36;;;;;;;10.88;7.43;;;;;;;10.95;85.73;99908.13;5081058;27;20416;-81
2023/09/13 01:03:06;;;;;;;11.15;7.72;;;;;;;10.94;85.93;99900.25;5078996;27;20039;-81
2023/09/13 01:05:37;;;;;;;11.85;7.43;;;;;;;10.93;86.13;99907.41;5064337;27;20528;-77
2023/09/13 01:08:03;;;;;;;10.48;7.60;;;;;;;10.88;86.04;99893.53;5063252;27;20051;-78
2023/09/13 01:10:29;;;;;;;13.25;8.07;;;;;;;10.86;86.32;99898.09;5096475;27;20555;-78
2023/09/13 01:12:57;;;;;;;12.50;7.80;;;;;;;10.84;86.48;99889.34;5101195;27;20041;-78
2023/09/13 01:15:26;;;;;;;11.70;7.80;;;;;;;10.80;86.24;99914.53;5102774;27;20042;-77
2023/09/13 01:18:06;;;;;;;14.25;7.38;;;;;;;10.88;87.01;99910.38;5121294;27;20046;-78
2023/09/13 01:20:56;;;;;;;19.42;8.27;;;;;;;10.91;87.69;99898.66;5103047;27;20041;-79
2023/09/13 01:23:41;;;;;;;11.88;7.70;;;;;;;10.93;87.38;99899.41;5101012;27;20051;-76
2023/09/13 01:26:28;;;;;;;13.65;8.90;;;;;;;10.99;87.56;99900.78;5102148;27;20035;-77
2023/09/13 01:28:55;;;;;;;10.85;7.50;;;;;;;10.93;86.67;99942.09;5120490;27;20054;-76
2023/09/13 01:31:21;;;;;;;13.15;8.10;;;;;;;10.93;86.45;99910.06;5119547;27;20047;-77
2023/09/13 01:33:47;;;;;;;13.15;8.02;;;;;;;10.91;86.14;99896.84;5102204;27;20038;-79
2023/09/13 01:36:13;;;;;;;12.32;7.88;;;;;;;10.88;86.16;99907.72;5079011;27;20051;-77
2023/09/13 01:38:39;;;;;;;13.48;8.20;;;;;;;10.84;86.66;99916.03;5080795;27;20046;-76
2023/09/13 01:41:16;;;;;;;12.10;7.45;;;;;;;10.86;86.59;99909.63;5082696;27;20046;-77
2023/09/13 01:43:42;;;;;;;15.00;8.52;;;;;;;10.79;86.17;99912.81;5099918;27;20043;-77
2023/09/13 01:46:08;;;;;;;12.30;7.82;;;;;;;10.74;86.27;99904.28;5098321;27;20045;-78
2023/09/13 01:48:36;;;;;;;12.50;8.27;;;;;;;10.72;86.67;99908.88;5098977;27;20054;-81
2023/09/13 01:51:02;;;;;;;13.57;7.47;;;;;;;10.69;86.17;99901.94;5101313;27;20035;-83
2023/09/13 01:53:29;;;;;;;12.70;8.35;;;;;;;10.66;86.35;99906.63;5101133;27;20038;-76
2023/09/13 01:55:54;;;;;;;12.40;7.97;;;;;;;10.62;87.14;99913.94;5082882;27;20429;-76
2023/09/13 01:58:19;;;;;;;13.88;7.68;;;;;;;10.58;87.45;99893.81;5096977;27;20053;-76
2023/09/13 02:00:45;;;;;;;13.93;7.28;;;;;;;10.61;87.67;99914.91;5080577;27;20043;-77
2023/09/13 02:03:12;;;;;;;9.57;7.35;;;;;;;10.64;87.36;99925.38;5100238;27;20053;-76
2023/09/13 02:05:37;;;;;;;12.57;8.35;;;;;;;10.68;88.12;99920.69;5080023;27;20047;-82
2023/09/13 02:08:03;;;;;;;13.25;8.05;;;;;;;10.67;87.95;99913.66;5066774;27;20046;-79
2023/09/13 02:10:28;;;;;;;11.15;8.32;;;;;;;10.65;87.90;99911.09;5119603;27;20138;-81
2023/09/13 02:12:54;;;;;;;15.75;7.63;;;;;;;10.64;87.79;99911.19;5102685;27;20049;-82
2023/09/13 02:15:19;;;;;;;11.05;7.72;;;;;;;10.64;87.63;99919.19;5084881;27;20047;-78
2023/09/13 02:17:45;;;;;;;13.73;9.20;;;;;;;10.61;87.72;99930.09;5099169;27;20042;-79
2023/09/13 02:20:14;;;;;;;10.95;8.57;;;;;;;10.57;87.44;99924.09;5098647;27;20413;-80
2023/09/13 02:22:39;;;;;;;13.32;8.10;;;;;;;10.55;87.53;99904.66;5100783;27;20488;-77
2023/09/13 02:25:05;;;;;;;15.88;8.13;;;;;;;10.52;87.44;99873.72;5065674;27;20042;-80
2023/09/13 02:27:32;;;;;;;13.15;8.43;;;;;;;10.51;87.61;99930.66;5118847;27;20047;-78
2023/09/13 02:29:58;;;;;;;10.35;7.55;;;;;;;10.50;87.95;99928.97;5084544;27;20047;-78
2023/09/13 02:32:23;;;;;;;12.45;7.65;;;;;;;10.51;87.91;99940.47;5101072;27;20046;-78
2023/09/13 02:34:48;;;;;;;11.85;7.88;;;;;;;10.50;87.78;99928.97;5099141;27;20050;-76
2023/09/13 02:37:14;;;;;;;12.13;7.80;;;;;;;10.50;88.10;99934.28;5079986;27;20051;-74
2023/09/13 02:39:41;;;;;;;14.27;8.88;;;;;;;10.49;88.15;99916.63;5098918;27;20046;-75
2023/09/13 02:42:07;;;;;;;19.98;13.10;;;;;;;10.52;88.39;99915.53;5082114;27;20057;-83
2023/09/13 02:44:33;;;;;;;13.25;8.30;;;;;;;10.53;89.07;99879.91;5083754;27;20047;-85
2023/09/13 02:46:59;;;;;;;13.05;7.53;;;;;;;10.53;89.00;99912.75;5064006;27;20058;-80
2023/09/13 02:49:25;;;;;;;12.00;7.70;;;;;;;10.50;88.56;99915.63;5097986;27;20878;-79
2023/09/13 02:51:51;;;;;;;11.73;8.18;;;;;;;10.48;88.54;99914.91;5063397;27;20043;-78
2023/09/13 02:54:18;;;;;;;11.93;7.60;;;;;;;10.48;88.29;99914.03;5092228;27;20042;-81
2023/09/13 02:56:49;;;;;;;13.05;8.30;;;;;;;10.46;88.04;99916.81;5099416;27;20054;-81
2023/09/13 02:59:15;;;;;;;13.50;8.45;;;;;;;10.49;88.53;99918.44;5079968;27;20046;-78
2023/09/13 03:01:42;;;;;;;13.85;8.57;;;;;;;10.51;88.44;99917.34;5100424;27;20876;-79
2023/09/13 03:04:08;;;;;;;13.45;8.30;;;;;;;10.51;88.98;99927.16;5083402;27;20516;-75
2023/09/13 03:06:34;;;;;;;14.45;8.45;;;;;;;10.50;88.37;99939.63;5118291;27;20049;-79
2023/09/13 03:08:59;;;;;;;12.85;8.40;;;;;;;10.51;88.80;99921.81;5090845;27;20409;-81
2023/09/13 03:11:25;;;;;;;12.43;8.30;;;;;;;10.51;88.49;99945.81;5063155;27;20043;-80
2023/09/13 03:13:51;;;;;;;13.30;7.90;;;;;;;10.50;88.31;99928.97;5079337;27;20042;-77
2023/09/13 03:16:21;;;;;;;10.98;8.18;;;;;;;10.57;88.38;99917.91;5079754;27;20042;-79
2023/09/13 03:18:49;;;;;;;14.95;8.10;;;;;;;10.59;88.05;99911.50;5075824;28;20058;-79
2023/09/13 03:21:18;;;;;;;12.60;7.80;;;;;;;10.65;88.26;99920.91;5074100;27;20505;-78
2023/09/13 03:23:46;;;;;;;13.23;8.23;;;;;;;10.70;88.02;99926.78;5076348;27;20144;-76
2023/09/13 03:26:15;;;;;;;12.63;7.55;;;;;;;10.76;87.37;99916.56;5095670;27;20465;-79
2023/09/13 03:28:44;;;;;;;14.77;7.88;;;;;;;10.85;87.06;99925.72;5062534;27;20378;-78
2023/09/13 03:31:13;;;;;;;15.88;8.00;;;;;;;10.91;86.78;99928.00;5080296;27;20068;-80
2023/09/13 03:33:40;;;;;;;13.82;7.88;;;;;;;11.02;86.43;99941.44;5068246;28;20406;-80
2023/09/13 03:36:08;;;;;;;12.65;7.88;;;;;;;11.13;86.34;99948.72;5076544;28;20058;-80
2023/09/13 03:38:37;;;;;;;11.95;8.25;;;;;;;11.24;85.66;99909.66;5076315;28;20485;-80
2023/09/13 03:41:12;;;;;;;12.27;8.35;;;;;;;11.42;85.44;99917.31;5059025;28;20056;-77
2023/09/13 03:43:37;;;;;;;12.10;8.00;;;;;;;11.51;85.11;99922.03;5076490;28;20054;-79
2023/09/13 03:46:05;;;;;;;14.40;8.18;;;;;;;11.60;84.42;99932.06;5059186;28;20050;-79
2023/09/13 03:48:33;;;;;;;12.57;8.32;;;;;;;11.70;83.25;99921.56;5076231;28;20055;-78
2023/09/13 03:50:58;;;;;;;12.38;8.52;;;;;;;11.80;82.55;99906.63;5076389;28;20418;-82
2023/09/13 03:53:25;;;;;;;14.13;8.45;;;;;;;11.88;81.92;99958.50;5051656;27;20054;-79
2023/09/13 03:55:51;;;;;;;11.98;8.02;;;;;;;12.01;81.81;99926.44;5081959;27;20058;-80
2023/09/13 03:58:17;;;;;;;12.27;8.35;;;;;;;12.16;81.31;99940.50;5069946;27;20136;-80
2023/09/13 04:00:43;;;;;;;18.38;8.95;;;;;;;12.29;80.82;99935.97;5097947;27;20039;-82
2023/09/13 04:03:08;;;;;;;11.75;8.50;;;;;;;12.41;80.50;99960.94;5079640;27;20051;-82
2023/09/13 04:05:33;;;;;;;21.25;13.77;;;;;;;12.54;80.02;99930.47;5060791;28;20413;-80
2023/09/13 04:07:59;;;;;;;15.43;9.25;;;;;;;12.68;79.60;99938.31;5096369;28;20421;-80
2023/09/13 04:10:24;;;;;;;15.38;9.15;;;;;;;12.82;78.78;99949.81;5078503;28;20062;-77
2023/09/13 04:12:50;;;;;;;13.52;8.30;;;;;;;12.98;77.72;99918.25;5097564;28;20039;-78
2023/09/13 04:15:16;;;;;;;15.57;8.07;;;;;;;13.17;77.51;99934.59;5093998;28;20501;-74
2023/09/13 04:17:41;;;;;;;12.55;8.50;;;;;;;13.38;76.54;99938.28;5077083;28;20540;-74
2023/09/13 04:20:08;;;;;;;11.82;8.75;;;;;;;13.61;76.34;99938.31;5095248;28;20046;-74
2023/09/13 04:22:33;;;;;;;12.30;7.43;;;;;;;13.81;75.21;99934.88;5059317;28;20039;-74
2023/09/13 04:24:58;;;;;;;12.43;8.35;;;;;;;14.00;74.23;99939.59;5093942;28;20047;-75
2023/09/13 04:27:24;;;;;;;19.38;10.20;;;;;;;14.13;73.59;99945.69;5094949;28;20035;-77
2023/09/13 04:29:50;;;;;;;16.02;8.93;;;;;;;14.25;72.61;99954.53;5095565;28;20043;-78
2023/09/13 04:32:15;;;;;;;17.25;10.15;;;;;;;14.35;72.10;99936.72;5077813;28;20043;-78
2023/09/13 04:34:41;;;;;;;14.43;9.07;;;;;;;14.48;72.03;99945.50;5095522;27;20038;-77
2023/09/13 04:37:06;;;;;;;17.83;8.68;;;;;;;14.58;71.74;99940.22;5093869;27;20039;-80
2023/09/13 04:39:32;;;;;;;10.65;8.65;;;;;;;14.69;71.28;99945.53;5093807;27;20461;-74
2023/09/13 04:41:59;;;;;;;14.80;9.45;;;;;;;14.82;70.91;99954.28;5097788;27;20042;-73
2023/09/13 04:44:27;;;;;;;20.52;9.85;;;;;;;14.96;70.25;99931.63;5109880;28;20050;-75
2023/09/13 04:46:53;;;;;;;15.43;10.80;;;;;;;15.15;70.00;99940.66;5098184;27;20403;-74
2023/09/13 04:49:18;;;;;;;12.55;9.55;;;;;;;15.32;69.25;99941.91;5095318;27;20405;-75
2023/09/13 04:51:44;;;;;;;15.32;10.00;;;;;;;15.50;68.78;99939.47;5100711;27;20058;-75
2023/09/13 04:54:10;;;;;;;14.35;10.95;;;;;;;15.67;68.19;99941.56;5083119;27;20054;-75
2023/09/13 04:56:36;;;;;;;17.88;11.65;;;;;;;15.80;67.27;99952.09;5100113;27;20043;-77
2023/09/13 04:59:01;;;;;;;15.82;10.75;;;;;;;15.98;66.60;99945.06;5080862;27;20054;-76
2023/09/13 05:01:27;;;;;;;12.65;9.32;;;;;;;16.16;66.07;99942.56;5098406;27;20047;-76
2023/09/13 05:03:52;;;;;;;13.70;10.02;;;;;;;16.34;65.32;99941.78;5098250;27;20047;-76
2023/09/13 05:06:18;;;;;;;14.77;9.80;;;;;;;16.51;64.84;99947.44;5080076;27;20413;-74
2023/09/13 05:08:44;;;;;;;16.15;10.90;;;;;;;16.70;64.59;99940.25;5097437;27;20047;-77
2023/09/13 05:11:10;;;;;;;12.65;9.68;;;;;;;16.89;63.98;99934.03;5082206;27;20051;-78
2023/09/13 05:13:39;;;;;;;14.25;10.02;;;;;;;17.19;63.06;99961.78;5064650;27;20536;-75
2023/09/13 05:16:04;;;;;;;14.00;10.90;;;;;;;17.27;61.39;99956.53;5097286;27;20047;-74
2023/09/13 05:18:29;;;;;;;15.07;11.05;;;;;;;17.27;61.90;99932.28;5098275;27;20043;-73
2023/09/13 05:20:55;;;;;;;15.00;10.77;;;;;;;17.37;62.00;99941.22;5098436;27;20046;-74
2023/09/13 05:23:20;;;;;;;13.70;10.23;;;;;;;17.42;61.59;99934.38;5098657;27;20047;-76
2023/09/13 05:25:45;;;;;;;17.73;10.95;;;;;;;17.39;61.38;99937.34;5100266;27;20422;-76
2023/09/13 05:28:14;;;;;;;14.43;11.38;;;;;;;17.37;61.29;99943.91;5098530;27;20054;-77
2023/09/13 05:30:42;;;;;;;16.38;11.77;;;;;;;17.29;61.36;99944.59;5098789;27;20052;-75
2023/09/13 05:33:07;;;;;;;18.38;11.60;;;;;;;17.62;61.27;99937.00;5082067;27;20433;-77
2023/09/13 05:35:32;;;;;;;17.58;10.65;;;;;;;18.16;59.88;99932.69;5101942;27;20035;-76
2023/09/13 05:37:58;;;;;;;17.75;11.82;;;;;;;18.61;58.51;99938.09;5103303;27;20038;-77
2023/09/13 05:40:26;;;;;;;16.05;11.85;;;;;;;18.69;57.22;99936.31;5096859;27;20416;-78
2023/09/13 05:42:51;;;;;;;17.77;10.90;;;;;;;18.88;57.28;99934.44;5064886;27;20055;-79
2023/09/13 05:45:16;;;;;;;17.05;10.95;;;;;;;19.10;56.62;99951.03;5079493;27;20054;-80
2023/09/13 05:47:42;;;;;;;20.38;11.10;;;;;;;19.61;56.02;99927.78;5114125;27;20050;-77
2023/09/13 05:50:07;;;;;;;15.57;10.63;;;;;;;20.55;54.87;99939.31;5121458;27;20061;-78
2023/09/13 05:52:33;;;;;;;14.48;10.52;;;;;;;21.77;50.61;99942.03;5103557;27;20050;-79
2023/09/13 05:54:58;;;;;;;14.75;10.50;;;;;;;22.84;47.57;99921.47;5084566;27;20043;-79
2023/09/13 05:57:23;;;;;;;15.75;10.80;;;;;;;23.46;44.54;99914.81;5096164;27;20670;-78
2023/09/13 05:59:48;;;;;;;17.17;11.48;;;;;;;23.80;44.51;99913.44;5120985;27;20047;-78
2023/09/13 06:02:13;;;;;;;12.75;10.23;;;;;;;24.59;43.73;99931.66;5120857;27;20062;-77
2023/09/13 06:04:39;;;;;;;12.77;9.68;;;;;;;25.56;42.12;99911.97;5106947;27;20493;-78
2023/09/13 06:07:04;;;;;;;14.95;9.65;;;;;;;26.62;39.84;99919.69;5115803;27;20050;-78
2023/09/13 06:09:29;;;;;;;13.68;9.45;;;;;;;27.71;37.30;99917.47;5098626;27;20053;-79
2023/09/13 06:11:57;;;;;;;13.32;8.45;;;;;;;28.67;35.72;99917.50;5104976;27;20045;-78
2023/09/13 06:14:23;;;;;;;15.48;9.77;;;;;;;29.05;35.00;99916.66;5083987;27;20062;-77
2023/09/13 06:16:48;;;;;;;11.68;8.43;;;;;;;29.05;34.00;99914.75;5083925;27;20046;-80
2023/09/13 06:19:13;;;;;;;11.82;8.40;;;;;;;29.34;33.11;99916.00;5087381;27;20043;-78
2023/09/13 06:21:38;;;;;;;12.40;8.95;;;;;;;29.62;33.46;99926.53;5092498;27;20074;-78
2023/09/13 06:24:04;;;;;;;15.15;9.05;;;;;;;30.14;31.56;99918.81;5128180;27;20042;-79
2023/09/13 06:26:29;;;;;;;13.20;8.60;;;;;;;30.24;31.33;99908.13;5091332;27;20058;-79
2023/09/13 06:28:54;;;;;;;14.43;8.50;;;;;;;30.11;31.34;99913.78;5084733;27;20410;-81
2023/09/13 06:31:20;;;;;;;12.43;8.70;;;;;;;30.26;30.84;99894.97;5103343;27;20390;-80
2023/09/13 06:33:46;;;;;;;10.23;7.88;;;;;;;30.24;30.81;99917.22;5086782;27;20499;-80
2023/09/13 06:36:11;;;;;;;10.95;8.38;;;;;;;30.78;30.28;99863.16;5064995;27;20066;-79
2023/09/13 06:38:36;;;;;;;11.50;8.85;;;;;;;31.12;29.49;99921.31;5064312;27;20054;-81
2023/09/13 06:41:02;;;;;;;12.23;8.00;;;;;;;31.56;28.71;99895.97;5066125;27;20047;-80
2023/09/13 06:43:27;;;;;;;9.02;7.40;;;;;;;31.86;28.33;99922.56;5102916;27;20035;-82
2023/09/13 06:45:52;;;;;;;9.75;7.50;;;;;;;31.78;28.04;99901.72;5088289;27;20057;-81
2023/09/13 06:48:19;;;;;;;8.65;7.07;;;;;;;31.45;27.87;99898.72;5123379;27;20042;-80
2023/09/13 06:50:44;;;;;;;8.40;6.88;;;;;;;31.75;27.98;99933.38;5119756;27;20034;-76
2023/09/13 06:53:09;;;;;;;8.45;7.07;;;;;;;32.01;27.08;99921.00;5100605;27;20446;-74
2023/09/13 06:55:34;;;;;;;9.73;6.70;;;;;;;32.58;26.79;99912.81;5100974;27;20031;-76
2023/09/13 06:58:07;;;;;;;10.60;7.50;;;;;;;33.51;25.86;99920.59;5083671;27;20042;-75
2023/09/13 07:00:33;;;;;;;11.20;6.78;;;;;;;33.74;25.21;99913.19;5119627;27;20043;-77
2023/09/13 07:03:02;;;;;;;8.80;7.22;;;;;;;34.08;24.22;99925.88;5119386;27;20038;-78
2023/09/13 07:05:27;;;;;;;10.18;6.90;;;;;;;34.82;24.05;99904.09;5100754;27;20065;-77
2023/09/13 07:07:52;;;;;;;9.85;7.28;;;;;;;35.43;22.72;99896.34;5099186;27;20050;-75
2023/09/13 07:10:18;;;;;;;9.88;6.95;;;;;;;35.81;22.42;99906.31;5117894;27;20069;-76
2023/09/13 07:12:44;;;;;;;16.58;7.03;;;;;;;35.90;22.45;99899.16;5083979;27;20057;-78
2023/09/13 07:15:10;;;;;;;14.93;8.55;;;;;;;36.18;22.02;99922.06;5101119;27;20408;-79
2023/09/13 07:17:35;;;;;;;10.55;6.93;;;;;;;36.64;21.81;99918.38;5100751;27;20369;-81
2023/09/13 07:20:00;;;;;;;8.68;7.25;;;;;;;37.34;20.98;99899.31;5103624;27;20053;-80
2023/09/13 07:22:27;;;;;;;8.13;6.75;;;;;;;38.14;20.17;99892.78;5083490;27;20043;-81
2023/09/13 07:24:52;;;;;;;8.98;7.05;;;;;;;38.94;19.38;99902.94;5099503;27;20054;-79
2023/09/13 07:27:18;;;;;;;12.93;7.72;;;;;;;39.32;19.28;99907.66;5119853;27;20041;-78
2023/09/13 07:29:43;;;;;;;9.30;7.32;;;;;;;39.58;18.49;99907.47;5099916;27;20070;-79
2023/09/13 07:32:08;;;;;;;8.93;6.75;;;;;;;39.79;18.56;99904.16;5098820;27;20057;-80
2023/09/13 07:34:33;;;;;;;11.13;7.30;;;;;;;40.31;18.09;99898.84;5117260;27;20034;-78
2023/09/13 07:36:59;;;;;;;7.63;6.82;;;;;;;40.62;17.81;99934.47;5115477;27;20035;-79
2023/09/13 07:39:24;;;;;;;11.13;6.80;;;;;;;40.97;17.19;99905.16;5106486;27;20064;-80
2023/09/13 07:41:49;;;;;;;7.90;7.13;;;;;;;41.40;17.08;99910.66;5119003;27;20429;-79
2023/09/13 07:44:16;;;;;;;14.27;7.03;;;;;;;41.69;16.98;99914.03;5083469;27;20042;-76
2023/09/13 07:46:41;;;;;;;10.48;7.38;;;;;;;41.54;16.43;99911.53;5099339;27;20050;-75
2023/09/13 07:49:06;;;;;;;7.15;6.38;;;;;;;40.91;16.48;99914.78;5119008;27;20038;-79
2023/09/13 07:51:31;;;;;;;8.80;7.32;;;;;;;40.97;16.71;99901.56;5102371;27;20049;-78
2023/09/13 07:54:03;;;;;;;10.95;7.10;;;;;;;41.09;16.12;99903.84;5081159;27;20050;-77
2023/09/13 07:56:29;;;;;;;8.00;7.30;;;;;;;42.19;15.62;99903.00;5117329;27;20046;-79
2023/09/13 07:58:54;;;;;;;7.95;7.15;;;;;;;42.35;15.54;99893.09;5117859;27;20046;-76
2023/09/13 08:01:19;;;;;;;10.05;8.15;;;;;;;41.50;15.76;99910.47;5082127;27;20051;-78
2023/09/13 08:03:45;;;;;;;12.45;7.45;;;;;;;41.56;16.16;99900.00;5082726;27;20046;-79
2023/09/13 08:06:10;;;;;;;7.85;7.05;;;;;;;42.18;15.93;99904.16;5081889;27;20058;-78
2023/09/13 08:08:35;;;;;;;9.70;7.70;;;;;;;41.72;15.69;99897.78;5100136;27;20420;-78
2023/09/13 08:11:00;;;;;;;9.30;6.63;;;;;;;41.41;16.04;99901.13;5065739;27;20390;-80
2023/09/13 08:13:26;;;;;;;7.95;6.85;;;;;;;41.78;16.09;99897.34;5082407;27;20046;-79
2023/09/13 08:15:51;;;;;;;10.27;6.90;;;;;;;41.90;15.54;99885.63;5086996;27;20031;-80
2023/09/13 08:18:17;;;;;;;7.88;7.10;;;;;;;41.82;15.33;99894.78;5099640;27;20054;-78
2023/09/13 08:20:43;;;;;;;9.43;7.13;;;;;;;41.15;15.51;99902.69;5085703;27;20050;-79
2023/09/13 08:23:08;;;;;;;11.45;7.43;;;;;;;41.40;15.68;99885.47;5069576;27;20042;-78
2023/09/13 08:25:33;;;;;;;10.20;7.15;;;;;;;41.92;14.97;99894.56;5087393;27;20070;-78
2023/09/13 08:27:58;;;;;;;7.38;6.68;;;;;;;42.28;15.19;99867.50;5089363;27;20401;-78
2023/09/13 08:30:24;;;;;;;7.75;6.95;;;;;;;43.06;14.95;99899.09;5121157;27;20025;-79
2023/09/13 08:32:49;;;;;;;8.63;7.82;;;;;;;43.95;14.55;99875.69;5102508;27;20046;-76
2023/09/13 08:35:15;;;;;;;9.20;8.05;;;;;;;44.37;13.92;99871.38;5104401;27;20505;-79
2023/09/13 08:37:40;;;;;;;8.73;7.93;;;;;;;44.71;13.28;99868.59;5088032;27;20042;-80
2023/09/13 08:40:06;;;;;;;10.25;9.13;;;;;;;43.63;13.58;99876.88;5105021;27;20443;-79
2023/09/13 08:42:32;;;;;;;9.32;7.95;;;;;;;43.33;14.20;99884.13;5105235;27;20090;-80
2023/09/13 08:44:59;;;;;;;10.45;7.65;;;;;;;43.55;13.79;99878.47;5089772;27;20047;-82
2023/09/13 08:47:31;;;;;;;11.27;10.13;;;;;;;43.25;13.63;99860.44;5112455;27;20042;-81
2023/09/13 08:49:58;;;;;;;8.73;7.88;;;;;;;43.30;13.90;99882.78;5104828;27;20457;-79
2023/09/13 08:52:25;;;;;;;9.13;8.32;;;;;;;43.32;14.20;99860.84;5104564;27;20042;-80
2023/09/13 08:54:53;;;;;;;10.18;8.45;;;;;;;43.39;13.75;99872.44;5082311;27;20039;-78
2023/09/13 08:57:20;;;;;;;12.20;7.72;;;;;;;42.12;14.21;99893.34;5100618;27;20054;-81
2023/09/13 08:59:45;;;;;;;8.30;7.50;;;;;;;41.13;14.80;99860.19;5065688;27;20043;-79
2023/09/13 09:02:15;;;;;;;7.10;6.50;;;;;;;40.05;15.44;99862.00;5083290;27;20043;-78
2023/09/13 09:04:41;;;;;;;7.80;6.82;;;;;;;37.34;17.54;99858.44;5085229;27;20051;-80
2023/09/13 09:07:07;;;;;;;7.15;6.18;;;;;;;35.67;18.80;99861.53;5102711;27;20051;-80
2023/09/13 09:09:34;;;;;;;7.63;5.97;;;;;;;34.75;19.90;99848.09;5085037;27;20053;-80
2023/09/13 09:12:02;;;;;;;9.32;6.30;;;;;;;34.83;20.48;99855.91;5121300;27;20409;-79
2023/09/13 09:14:33;;;;;;;8.15;6.15;;;;;;;34.75;19.87;99858.28;5102102;27;20050;-78
2023/09/13 09:17:01;;;;;;;6.28;5.55;;;;;;;33.72;20.20;99833.25;5122017;27;20030;-76
2023/09/13 09:19:26;;;;;;;6.82;5.75;;;;;;;33.11;20.71;99848.06;5102391;27;20496;-77
2023/09/13 09:21:52;;;;;;;10.20;6.82;;;;;;;32.44;22.10;99854.31;5102304;27;20041;-77
2023/09/13 09:24:17;;;;;;;8.57;5.75;;;;;;;33.24;21.64;99858.81;5102221;27;20042;-78
2023/09/13 09:26:44;;;;;;;5.63;5.05;;;;;;;35.24;20.23;99847.91;5121327;27;20035;-77
2023/09/13 09:29:11;;;;;;;6.20;5.60;;;;;;;37.24;18.66;99818.69;5102704;27;20054;-76
2023/09/13 09:31:38;;;;;;;7.45;5.97;;;;;;;38.83;16.96;99841.66;5102728;27;20043;-78
2023/09/13 09:34:04;;;;;;;6.63;5.93;;;;;;;39.48;15.88;99842.25;5121827;27;20127;-77
2023/09/13 09:36:34;;;;;;;6.32;5.72;;;;;;;39.92;16.14;99844.84;5102214;27;20039;-78
2023/09/13 09:39:04;;;;;;;7.38;6.22;;;;;;;40.06;15.45;99833.78;5121426;27;20053;-78
2023/09/13 09:41:36;;;;;;;9.93;6.10;;;;;;;39.25;16.13;99858.94;5134702;27;20029;-83
2023/09/13 09:44:03;;;;;;;8.25;6.65;;;;;;;37.24;17.64;99846.50;5142275;27;20144;-82
2023/09/13 09:46:29;;;;;;;9.20;6.07;;;;;;;35.56;18.67;99848.72;5124260;27;20062;-81
2023/09/13 09:48:55;;;;;;;6.45;5.75;;;;;;;34.28;19.80;99842.31;5131542;27;20042;-80
2023/09/13 09:51:20;;;;;;;7.45;6.00;;;;;;;33.28;20.77;99840.63;5109333;27;20409;-78
2023/09/13 09:53:46;;;;;;;11.80;5.47;;;;;;;32.65;21.06;99846.41;5122881;27;20054;-77
2023/09/13 09:56:12;;;;;;;6.50;5.70;;;;;;;32.26;21.76;99835.22;5119783;27;20050;-76
2023/09/13 09:58:37;;;;;;;7.72;6.72;;;;;;;31.45;22.13;99829.81;5101486;27;20050;-78
2023/09/13 10:01:03;;;;;;;8.45;6.50;;;;;;;30.60;22.88;99831.00;5120707;27;20113;-77
2023/09/13 10:03:32;;;;;;;29.75;25.88;;;;;;;30.40;24.17;99826.84;5113595;27;20039;-78
2023/09/13 10:06:13;;;;;;;9.93;7.53;;;;;;;30.29;23.38;99826.59;5118998;27;20053;-75
2023/09/13 10:08:48;;;;;;;9.77;6.55;;;;;;;29.61;24.02;99831.44;5079775;27;20039;-81
2023/09/13 10:11:20;;;;;;;8.27;5.90;;;;;;;28.79;24.71;99838.09;5085395;27;20497;-79
2023/09/13 10:13:47;;;;;;;11.80;5.93;;;;;;;27.33;26.60;99831.53;5083729;27;20043;-83
2023/09/13 10:16:14;;;;;;;9.50;5.65;;;;;;;26.71;27.47;99832.81;5076242;28;20043;-82
2023/09/13 10:18:51;;;;;;;9.25;6.43;;;;;;;25.83;28.38;99844.75;5103615;27;20054;-79
2023/09/13 10:21:26;;;;;;;7.18;5.60;;;;;;;24.88;30.17;99828.94;5088023;27;20099;-80
2023/09/13 10:24:12;;;;;;;8.63;5.97;;;;;;;24.70;29.82;99843.06;5083935;27;20039;-80
2023/09/13 10:26:38;;;;;;;8.60;5.50;;;;;;;23.96;31.38;99847.03;5062985;28;20520;-77
2023/09/13 10:29:24;;;;;;;9.25;5.15;;;;;;;23.59;31.79;99861.63;5096204;27;20051;-80
2023/09/13 10:31:53;;;;;;;8.73;5.78;;;;;;;23.09;31.95;99855.81;5103719;27;20034;-78
2023/09/13 10:34:23;;;;;;;7.18;4.90;;;;;;;22.77;33.89;99837.94;5107810;27;20039;-83
2023/09/13 10:36:58;;;;;;;9.52;6.93;;;;;;;22.72;33.87;99829.44;5078853;27;20039;-81
2023/09/13 10:39:30;;;;;;;7.82;5.60;;;;;;;22.79;33.45;99837.78;5110394;27;20053;-80
2023/09/13 10:42:07;;;;;;;8.00;5.53;;;;;;;22.63;33.99;99865.03;5089470;27;20055;-80
2023/09/13 10:44:35;;;;;;;9.15;5.88;;;;;;;22.26;35.04;99834.03;5107313;27;20043;-79
2023/09/13 10:47:03;;;;;;;10.73;5.68;;;;;;;22.01;35.41;99833.34;5109706;27;20497;-78
2023/09/13 10:49:28;;;;;;;7.53;5.60;;;;;;;21.77;35.82;99844.31;5115012;27;20038;-82
2023/09/13 10:51:56;;;;;;;7.28;5.25;;;;;;;21.34;36.42;99838.34;5114988;27;20047;-81
2023/09/13 10:54:23;;;;;;;15.63;9.07;;;;;;;21.18;37.18;99846.53;5092267;28;20073;-82
2023/09/13 10:56:49;;;;;;;8.88;5.72;;;;;;;21.20;37.61;99849.09;5093595;27;20031;-80
2023/09/13 10:59:17;;;;;;;8.23;5.47;;;;;;;21.09;37.87;99839.41;5086621;27;20051;-79
2023/09/13 11:01:46;;;;;;;7.70;5.47;;;;;;;20.98;37.55;99864.16;5105955;27;20045;-82
2023/09/13 11:04:17;;;;;;;10.88;5.63;;;;;;;20.87;38.45;99845.53;5106484;27;20062;-84
2023/09/13 11:06:44;;;;;;;6.40;4.90;;;;;;;20.77;38.77;99842.16;5078315;28;20043;-80
2023/09/13 11:09:26;;;;;;;9.95;5.65;;;;;;;20.90;38.75;99810.78;5060771;28;20054;-78
2023/09/13 11:11:57;;;;;;;8.25;4.97;;;;;;;20.86;38.81;99844.69;5085208;27;20039;-81
2023/09/13 11:14:29;;;;;;;8.00;5.47;;;;;;;20.97;38.79;99836.22;5101224;27;20046;-81
2023/09/13 11:16:57;;;;;;;7.50;5.38;;;;;;;20.99;38.49;99865.88;5099272;27;20035;-75
2023/09/13 11:19:27;;;;;;;5.43;4.85;;;;;;;21.05;38.20;99854.31;5099274;27;20035;-79
2023/09/13 11:22:02;;;;;;;8.13;5.30;;;;;;;21.01;38.13;99847.53;5098163;27;20043;-74
2023/09/13 11:24:43;;;;;;;7.25;4.88;;;;;;;20.99;38.24;99838.75;5094682;27;20050;-76
2023/09/13 11:27:11;;;;;;;5.55;4.60;;;;;;;20.87;38.81;99850.97;5097457;27;20047;-77